sensor_id;sensor_type;location;lat;lon;timestamp;pressure;altitude;pressure_sealevel;temperature;humidity
78892;BME280;68368;51.728;5.248;2023-12-20T00:01:18;101646.38;;;4.94;100.00
78892;BME280;68368;51.728;5.248;2023-12-20T00:03:23;101643.45;;;4.96;100.00
78892;BME280;68368;51.728;5.248;2023-12-20T00:05:28;101644.86;;;4.97;100.00
78892;BME280;68368;51.728;5.248;2023-12-20T00:07:36;101651.09;;;4.98;100.00
78892;BME280;68368;51.728;5.248;2023-12-20T00:09:42;101652.36;;;5.01;100.00
78892;BME280;68368;51.728;5.248;2023-12-20T00:11:49;101646.98;;;5.04;100.00
78892;BME280;68368;51.728;5.248;2023-12-20T00:13:56;101647.09;;;5.07;100.00
78892;BME280;68368;51.728;5.248;2023-12-20T00:16:05;101646.64;;;5.11;100.00
78892;BME280;68368;51.728;5.248;2023-12-20T00:18:11;101642.28;;;5.12;100.00
78892;BME280;68368;51.728;5.248;2023-12-20T00:20:16;101644.77;;;5.13;100.00
78892;BME280;68368;51.728;5.248;2023-12-20T00:22:22;101645.11;;;5.13;100.00
78892;BME280;68368;51.728;5.248;2023-12-20T00:24:28;101634.75;;;5.14;100.00
78892;BME280;68368;51.728;5.248;2023-12-20T00:26:35;101633.70;;;5.14;100.00
78892;BME280;68368;51.728;5.248;2023-12-20T00:28:40;101641.77;;;5.13;100.00
78892;BME280;68368;51.728;5.248;2023-12-20T00:30:45;101645.39;;;5.10;100.00
78892;BME280;68368;51.728;5.248;2023-12-20T00:32:50;101638.49;;;5.09;100.00
78892;BME280;68368;51.728;5.248;2023-12-20T00:34:56;101637.55;;;5.06;100.00
78892;BME280;68368;51.728;5.248;2023-12-20T00:37:01;101639.41;;;5.03;100.00
78892;BME280;68368;51.728;5.248;2023-12-20T00:39:09;101640.78;;;5.02;100.00
78892;BME280;68368;51.728;5.248;2023-12-20T00:41:18;101639.02;;;5.02;100.00
78892;BME280;68368;51.728;5.248;2023-12-20T00:43:23;101641.85;;;5.03;100.00
78892;BME280;68368;51.728;5.248;2023-12-20T00:45:28;101638.71;;;5.04;100.00
78892;BME280;68368;51.728;5.248;2023-12-20T00:47:34;101631.86;;;5.04;100.00
78892;BME280;68368;51.728;5.248;2023-12-20T00:49:39;101624.09;;;5.03;100.00
78892;BME280;68368;51.728;5.248;2023-12-20T00:51:47;101625.80;;;5.01;100.00
78892;BME280;68368;51.728;5.248;2023-12-20T00:53:53;101635.23;;;4.97;100.00
78892;BME280;68368;51.728;5.248;2023-12-20T00:55:58;101641.65;;;4.94;100.00
78892;BME280;68368;51.728;5.248;2023-12-20T00:58:06;101646.33;;;4.91;100.00
78892;BME280;68368;51.728;5.248;2023-12-20T01:00:15;101645.17;;;4.88;100.00
78892;BME280;68368;51.728;5.248;2023-12-20T01:02:22;101642.24;;;4.84;100.00
78892;BME280;68368;51.728;5.248;2023-12-20T01:04:26;101640.58;;;4.80;100.00
78892;BME280;68368;51.728;5.248;2023-12-20T01:06:31;101639.78;;;4.77;100.00
78892;BME280;68368;51.728;5.248;2023-12-20T01:08:35;101633.39;;;4.74;100.00
78892;BME280;68368;51.728;5.248;2023-12-20T01:10:43;101638.96;;;4.72;100.00
78892;BME280;68368;51.728;5.248;2023-12-20T01:12:47;101640.52;;;4.71;100.00
78892;BME280;68368;51.728;5.248;2023-12-20T01:14:52;101637.84;;;4.70;100.00
78892;BME280;68368;51.728;5.248;2023-12-20T01:16:59;101635.40;;;4.71;100.00
78892;BME280;68368;51.728;5.248;2023-12-20T01:19:03;101639.44;;;4.70;100.00
78892;BME280;68368;51.728;5.248;2023-12-20T01:21:08;101634.48;;;4.69;100.00
78892;BME280;68368;51.728;5.248;2023-12-20T01:23:14;101633.02;;;4.67;100.00
78892;BME280;68368;51.728;5.248;2023-12-20T01:25:19;101634.89;;;4.65;100.00
78892;BME280;68368;51.728;5.248;2023-12-20T01:27:28;101637.63;;;4.62;100.00
78892;BME280;68368;51.728;5.248;2023-12-20T01:29:33;101642.13;;;4.59;100.00
78892;BME280;68368;51.728;5.248;2023-12-20T01:31:38;101644.30;;;4.55;100.00
78892;BME280;68368;51.728;5.248;2023-12-20T01:33:43;101637.70;;;4.52;100.00
78892;BME280;68368;51.728;5.248;2023-12-20T01:35:48;101642.55;;;4.49;100.00
78892;BME280;68368;51.728;5.248;2023-12-20T01:37:55;101635.95;;;4.46;100.00
78892;BME280;68368;51.728;5.248;2023-12-20T01:39:59;101632.50;;;4.42;100.00
78892;BME280;68368;51.728;5.248;2023-12-20T01:42:07;101631.39;;;4.40;100.00
78892;BME280;68368;51.728;5.248;2023-12-20T01:44:10;101633.10;;;4.38;100.00
78892;BME280;68368;51.728;5.248;2023-12-20T01:46:19;101636.54;;;4.35;100.00
78892;BME280;68368;51.728;5.248;2023-12-20T01:48:32;101638.79;;;4.34;100.00
78892;BME280;68368;51.728;5.248;2023-12-20T01:50:39;101639.11;;;4.33;100.00
78892;BME280;68368;51.728;5.248;2023-12-20T01:52:48;101639.77;;;4.31;100.00
78892;BME280;68368;51.728;5.248;2023-12-20T01:54:54;101638.13;;;4.29;100.00
78892;BME280;68368;51.728;5.248;2023-12-20T01:56:59;101637.22;;;4.28;100.00
78892;BME280;68368;51.728;5.248;2023-12-20T01:59:07;101634.37;;;4.26;100.00
78892;BME280;68368;51.728;5.248;2023-12-20T02:01:14;101634.86;;;4.25;100.00
78892;BME280;68368;51.728;5.248;2023-12-20T02:03:20;101634.14;;;4.25;100.00
78892;BME280;68368;51.728;5.248;2023-12-20T02:05:26;101635.16;;;4.24;100.00
78892;BME280;68368;51.728;5.248;2023-12-20T02:07:34;101637.44;;;4.23;100.00
78892;BME280;68368;51.728;5.248;2023-12-20T02:09:39;101642.52;;;4.23;100.00
78892;BME280;68368;51.728;5.248;2023-12-20T02:11:44;101650.05;;;4.21;100.00
78892;BME280;68368;51.728;5.248;2023-12-20T02:13:49;101649.65;;;4.20;100.00
78892;BME280;68368;51.728;5.248;2023-12-20T02:15:55;101653.83;;;4.19;100.00
78892;BME280;68368;51.728;5.248;2023-12-20T02:18:05;101654.36;;;4.19;100.00
78892;BME280;68368;51.728;5.248;2023-12-20T02:20:11;101646.46;;;4.19;100.00
78892;BME280;68368;51.728;5.248;2023-12-20T02:22:19;101642.99;;;4.21;100.00
78892;BME280;68368;51.728;5.248;2023-12-20T02:24:24;101641.09;;;4.22;100.00
78892;BME280;68368;51.728;5.248;2023-12-20T02:26:30;101637.55;;;4.21;100.00
78892;BME280;68368;51.728;5.248;2023-12-20T02:28:38;101637.19;;;4.21;100.00
78892;BME280;68368;51.728;5.248;2023-12-20T02:30:42;101634.52;;;4.20;100.00
78892;BME280;68368;51.728;5.248;2023-12-20T02:32:49;101640.17;;;4.20;100.00
78892;BME280;68368;51.728;5.248;2023-12-20T02:34:55;101641.92;;;4.20;100.00
78892;BME280;68368;51.728;5.248;2023-12-20T02:37:00;101647.94;;;4.22;100.00
78892;BME280;68368;51.728;5.248;2023-12-20T02:39:08;101649.38;;;4.23;100.00
78892;BME280;68368;51.728;5.248;2023-12-20T02:41:16;101646.48;;;4.26;100.00
78892;BME280;68368;51.728;5.248;2023-12-20T02:43:23;101640.06;;;4.29;100.00
78892;BME280;68368;51.728;5.248;2023-12-20T02:45:27;101639.94;;;4.31;100.00
78892;BME280;68368;51.728;5.248;2023-12-20T02:47:32;101631.39;;;4.33;100.00
78892;BME280;68368;51.728;5.248;2023-12-20T02:49:37;101630.41;;;4.36;100.00
78892;BME280;68368;51.728;5.248;2023-12-20T02:51:42;101630.71;;;4.41;100.00
78892;BME280;68368;51.728;5.248;2023-12-20T02:53:49;101624.33;;;4.45;100.00
78892;BME280;68368;51.728;5.248;2023-12-20T02:55:52;101615.81;;;4.49;100.00
78892;BME280;68368;51.728;5.248;2023-12-20T02:57:58;101617.81;;;4.51;100.00
78892;BME280;68368;51.728;5.248;2023-12-20T03:00:08;101615.96;;;4.54;100.00
78892;BME280;68368;51.728;5.248;2023-12-20T03:02:14;101615.14;;;4.56;100.00
78892;BME280;68368;51.728;5.248;2023-12-20T03:04:19;101615.17;;;4.58;100.00
78892;BME280;68368;51.728;5.248;2023-12-20T03:06:25;101612.27;;;4.60;100.00
78892;BME280;68368;51.728;5.248;2023-12-20T03:08:30;101611.81;;;4.63;100.00
78892;BME280;68368;51.728;5.248;2023-12-20T03:10:41;101606.55;;;4.64;100.00
78892;BME280;68368;51.728;5.248;2023-12-20T03:12:46;101607.42;;;4.63;100.00
78892;BME280;68368;51.728;5.248;2023-12-20T03:14:51;101609.20;;;4.64;100.00
78892;BME280;68368;51.728;5.248;2023-12-20T03:16:57;101609.15;;;4.62;100.00
78892;BME280;68368;51.728;5.248;2023-12-20T03:19:03;101610.89;;;4.62;100.00
78892;BME280;68368;51.728;5.248;2023-12-20T03:21:08;101609.87;;;4.63;100.00
78892;BME280;68368;51.728;5.248;2023-12-20T03:23:14;101599.70;;;4.64;100.00
78892;BME280;68368;51.728;5.248;2023-12-20T03:25:20;101599.98;;;4.67;100.00
78892;BME280;68368;51.728;5.248;2023-12-20T03:27:25;101596.70;;;4.71;100.00
78892;BME280;68368;51.728;5.248;2023-12-20T03:29:30;101601.21;;;4.75;100.00
78892;BME280;68368;51.728;5.248;2023-12-20T03:31:36;101596.45;;;4.81;100.00
78892;BME280;68368;51.728;5.248;2023-12-20T03:33:41;101592.94;;;4.88;100.00
78892;BME280;68368;51.728;5.248;2023-12-20T03:35:47;101589.93;;;4.95;100.00
78892;BME280;68368;51.728;5.248;2023-12-20T03:37:53;101584.83;;;5.02;100.00
78892;BME280;68368;51.728;5.248;2023-12-20T03:39:57;101577.92;;;5.07;100.00
78892;BME280;68368;51.728;5.248;2023-12-20T03:42:05;101577.15;;;5.12;100.00
78892;BME280;68368;51.728;5.248;2023-12-20T03:44:11;101575.30;;;5.15;100.00
78892;BME280;68368;51.728;5.248;2023-12-20T03:46:16;101578.39;;;5.19;100.00
78892;BME280;68368;51.728;5.248;2023-12-20T03:48:22;101583.76;;;5.23;100.00
78892;BME280;68368;51.728;5.248;2023-12-20T03:50:28;101586.30;;;5.26;100.00
78892;BME280;68368;51.728;5.248;2023-12-20T03:52:36;101589.02;;;5.30;100.00
78892;BME280;68368;51.728;5.248;2023-12-20T03:54:47;101592.96;;;5.33;100.00
78892;BME280;68368;51.728;5.248;2023-12-20T03:56:53;101592.54;;;5.37;100.00
78892;BME280;68368;51.728;5.248;2023-12-20T03:58:59;101586.63;;;5.41;100.00
78892;BME280;68368;51.728;5.248;2023-12-20T04:01:12;101584.29;;;5.45;100.00
78892;BME280;68368;51.728;5.248;2023-12-20T04:03:20;101586.69;;;5.51;100.00
78892;BME280;68368;51.728;5.248;2023-12-20T04:05:28;101593.70;;;5.57;100.00
78892;BME280;68368;51.728;5.248;2023-12-20T04:07:35;101595.77;;;5.63;100.00
78892;BME280;68368;51.728;5.248;2023-12-20T04:09:41;101595.91;;;5.69;100.00
78892;BME280;68368;51.728;5.248;2023-12-20T04:11:47;101598.82;;;5.74;100.00
78892;BME280;68368;51.728;5.248;2023-12-20T04:13:55;101607.19;;;5.78;100.00
78892;BME280;68368;51.728;5.248;2023-12-20T04:16:00;101604.11;;;5.82;100.00
78892;BME280;68368;51.728;5.248;2023-12-20T04:18:07;101604.35;;;5.86;100.00
78892;BME280;68368;51.728;5.248;2023-12-20T04:20:15;101603.39;;;5.89;100.00
78892;BME280;68368;51.728;5.248;2023-12-20T04:22:23;101601.55;;;5.93;100.00
78892;BME280;68368;51.728;5.248;2023-12-20T04:24:28;101596.31;;;5.95;100.00
78892;BME280;68368;51.728;5.248;2023-12-20T04:26:33;101600.62;;;5.98;100.00
78892;BME280;68368;51.728;5.248;2023-12-20T04:28:39;101597.67;;;6.01;100.00
78892;BME280;68368;51.728;5.248;2023-12-20T04:30:44;101595.21;;;6.02;100.00
78892;BME280;68368;51.728;5.248;2023-12-20T04:32:50;101591.02;;;6.03;100.00
78892;BME280;68368;51.728;5.248;2023-12-20T04:34:56;101585.55;;;6.03;100.00
78892;BME280;68368;51.728;5.248;2023-12-20T04:37:05;101584.15;;;6.03;100.00
78892;BME280;68368;51.728;5.248;2023-12-20T04:39:11;101577.81;;;6.04;100.00
78892;BME280;68368;51.728;5.248;2023-12-20T04:41:17;101581.02;;;6.05;100.00
78892;BME280;68368;51.728;5.248;2023-12-20T04:43:22;101586.86;;;6.06;100.00
78892;BME280;68368;51.728;5.248;2023-12-20T04:45:28;101584.73;;;6.06;100.00
78892;BME280;68368;51.728;5.248;2023-12-20T04:47:47;101586.67;;;6.07;100.00
78892;BME280;68368;51.728;5.248;2023-12-20T04:49:52;101597.98;;;6.07;100.00
78892;BME280;68368;51.728;5.248;2023-12-20T04:52:01;101604.86;;;6.07;100.00
78892;BME280;68368;51.728;5.248;2023-12-20T04:54:06;101600.83;;;6.08;100.00
78892;BME280;68368;51.728;5.248;2023-12-20T04:56:12;101599.44;;;6.09;100.00
78892;BME280;68368;51.728;5.248;2023-12-20T04:58:17;101593.45;;;6.10;100.00
78892;BME280;68368;51.728;5.248;2023-12-20T05:00:22;101590.49;;;6.11;100.00
78892;BME280;68368;51.728;5.248;2023-12-20T05:02:28;101592.63;;;6.13;100.00
78892;BME280;68368;51.728;5.248;2023-12-20T05:04:36;101591.41;;;6.14;100.00
78892;BME280;68368;51.728;5.248;2023-12-20T05:06:41;101587.20;;;6.15;100.00
78892;BME280;68368;51.728;5.248;2023-12-20T05:08:48;101578.23;;;6.15;100.00
78892;BME280;68368;51.728;5.248;2023-12-20T05:10:53;101572.22;;;6.15;100.00
78892;BME280;68368;51.728;5.248;2023-12-20T05:12:59;101574.16;;;6.15;100.00
78892;BME280;68368;51.728;5.248;2023-12-20T05:15:10;101572.92;;;6.15;100.00
78892;BME280;68368;51.728;5.248;2023-12-20T05:17:15;101566.88;;;6.12;100.00
78892;BME280;68368;51.728;5.248;2023-12-20T05:19:20;101566.33;;;6.10;100.00
78892;BME280;68368;51.728;5.248;2023-12-20T05:21:28;101565.88;;;6.07;100.00
78892;BME280;68368;51.728;5.248;2023-12-20T05:23:35;101567.36;;;6.01;100.00
78892;BME280;68368;51.728;5.248;2023-12-20T05:25:41;101568.60;;;5.94;100.00
78892;BME280;68368;51.728;5.248;2023-12-20T05:27:46;101560.67;;;5.86;100.00
78892;BME280;68368;51.728;5.248;2023-12-20T05:29:54;101561.60;;;5.80;100.00
78892;BME280;68368;51.728;5.248;2023-12-20T05:32:01;101561.46;;;5.73;100.00
78892;BME280;68368;51.728;5.248;2023-12-20T05:34:07;101565.39;;;5.68;100.00
78892;BME280;68368;51.728;5.248;2023-12-20T05:36:13;101570.89;;;5.61;100.00
78892;BME280;68368;51.728;5.248;2023-12-20T05:38:18;101572.91;;;5.57;100.00
78892;BME280;68368;51.728;5.248;2023-12-20T05:40:27;101575.98;;;5.53;100.00
78892;BME280;68368;51.728;5.248;2023-12-20T05:42:33;101575.40;;;5.50;100.00
78892;BME280;68368;51.728;5.248;2023-12-20T05:44:38;101574.97;;;5.46;100.00
78892;BME280;68368;51.728;5.248;2023-12-20T05:46:43;101576.88;;;5.45;100.00
78892;BME280;68368;51.728;5.248;2023-12-20T05:48:50;101578.84;;;5.46;100.00
78892;BME280;68368;51.728;5.248;2023-12-20T05:50:59;101581.52;;;5.49;100.00
78892;BME280;68368;51.728;5.248;2023-12-20T05:53:06;101583.71;;;5.51;100.00
78892;BME280;68368;51.728;5.248;2023-12-20T05:55:16;101584.48;;;5.54;100.00
78892;BME280;68368;51.728;5.248;2023-12-20T05:57:22;101586.60;;;5.55;100.00
78892;BME280;68368;51.728;5.248;2023-12-20T05:59:27;101590.50;;;5.56;100.00
78892;BME280;68368;51.728;5.248;2023-12-20T06:01:33;101593.16;;;5.57;100.00
78892;BME280;68368;51.728;5.248;2023-12-20T06:03:43;101594.98;;;5.59;100.00
78892;BME280;68368;51.728;5.248;2023-12-20T06:05:50;101591.45;;;5.59;100.00
78892;BME280;68368;51.728;5.248;2023-12-20T06:07:55;101595.49;;;5.59;100.00
78892;BME280;68368;51.728;5.248;2023-12-20T06:10:01;101591.92;;;5.56;100.00
78892;BME280;68368;51.728;5.248;2023-12-20T06:12:09;101588.15;;;5.53;100.00
78892;BME280;68368;51.728;5.248;2023-12-20T06:14:17;101584.16;;;5.48;100.00
78892;BME280;68368;51.728;5.248;2023-12-20T06:16:23;101581.93;;;5.42;100.00
78892;BME280;68368;51.728;5.248;2023-12-20T06:18:29;101581.63;;;5.38;100.00
78892;BME280;68368;51.728;5.248;2023-12-20T06:20:37;101576.73;;;5.32;100.00
78892;BME280;68368;51.728;5.248;2023-12-20T06:22:43;101580.15;;;5.27;100.00
78892;BME280;68368;51.728;5.248;2023-12-20T06:24:47;101580.40;;;5.22;100.00
78892;BME280;68368;51.728;5.248;2023-12-20T06:26:53;101588.06;;;5.19;100.00
78892;BME280;68368;51.728;5.248;2023-12-20T06:28:58;101589.46;;;5.18;100.00
78892;BME280;68368;51.728;5.248;2023-12-20T06:31:05;101590.33;;;5.18;100.00
78892;BME280;68368;51.728;5.248;2023-12-20T06:33:18;101592.50;;;5.21;100.00
78892;BME280;68368;51.728;5.248;2023-12-20T06:35:24;101587.64;;;5.24;100.00
78892;BME280;68368;51.728;5.248;2023-12-20T06:37:29;101585.45;;;5.27;100.00
78892;BME280;68368;51.728;5.248;2023-12-20T06:39:34;101587.12;;;5.32;100.00
78892;BME280;68368;51.728;5.248;2023-12-20T06:41:41;101578.06;;;5.35;100.00
78892;BME280;68368;51.728;5.248;2023-12-20T06:43:47;101582.34;;;5.38;100.00
78892;BME280;68368;51.728;5.248;2023-12-20T06:45:52;101587.17;;;5.41;100.00
78892;BME280;68368;51.728;5.248;2023-12-20T06:48:00;101587.95;;;5.44;100.00
78892;BME280;68368;51.728;5.248;2023-12-20T06:50:08;101587.67;;;5.48;100.00
78892;BME280;68368;51.728;5.248;2023-12-20T06:52:14;101581.77;;;5.51;100.00
78892;BME280;68368;51.728;5.248;2023-12-20T06:54:22;101578.14;;;5.55;100.00
78892;BME280;68368;51.728;5.248;2023-12-20T06:56:30;101575.22;;;5.58;100.00
78892;BME280;68368;51.728;5.248;2023-12-20T06:58:39;101581.79;;;5.60;100.00
78892;BME280;68368;51.728;5.248;2023-12-20T07:00:44;101582.91;;;5.63;100.00
78892;BME280;68368;51.728;5.248;2023-12-20T07:02:51;101572.89;;;5.64;100.00
78892;BME280;68368;51.728;5.248;2023-12-20T07:04:56;101582.44;;;5.66;100.00
78892;BME280;68368;51.728;5.248;2023-12-20T07:07:02;101579.83;;;5.67;100.00
78892;BME280;68368;51.728;5.248;2023-12-20T07:09:08;101583.73;;;5.69;100.00
78892;BME280;68368;51.728;5.248;2023-12-20T07:11:13;101581.84;;;5.71;100.00
78892;BME280;68368;51.728;5.248;2023-12-20T07:13:19;101580.98;;;5.72;100.00
78892;BME280;68368;51.728;5.248;2023-12-20T07:15:25;101574.98;;;5.72;100.00
78892;BME280;68368;51.728;5.248;2023-12-20T07:17:30;101578.48;;;5.70;100.00
78892;BME280;68368;51.728;5.248;2023-12-20T07:19:36;101576.33;;;5.68;100.00
78892;BME280;68368;51.728;5.248;2023-12-20T07:21:41;101580.39;;;5.68;100.00
78892;BME280;68368;51.728;5.248;2023-12-20T07:23:47;101577.39;;;5.69;100.00
78892;BME280;68368;51.728;5.248;2023-12-20T07:25:53;101580.91;;;5.68;100.00
78892;BME280;68368;51.728;5.248;2023-12-20T07:28:00;101581.98;;;5.70;100.00
78892;BME280;68368;51.728;5.248;2023-12-20T07:30:11;101577.09;;;5.71;100.00
78892;BME280;68368;51.728;5.248;2023-12-20T07:32:20;101571.47;;;5.72;100.00
78892;BME280;68368;51.728;5.248;2023-12-20T07:34:26;101568.66;;;5.72;100.00
78892;BME280;68368;51.728;5.248;2023-12-20T07:36:31;101567.95;;;5.72;100.00
78892;BME280;68368;51.728;5.248;2023-12-20T07:38:41;101572.21;;;5.74;100.00
78892;BME280;68368;51.728;5.248;2023-12-20T07:40:46;101568.02;;;5.76;100.00
78892;BME280;68368;51.728;5.248;2023-12-20T07:42:52;101568.06;;;5.77;100.00
78892;BME280;68368;51.728;5.248;2023-12-20T07:44:58;101565.64;;;5.79;100.00
78892;BME280;68368;51.728;5.248;2023-12-20T07:47:04;101566.21;;;5.81;100.00
78892;BME280;68368;51.728;5.248;2023-12-20T07:49:09;101566.45;;;5.84;100.00
78892;BME280;68368;51.728;5.248;2023-12-20T07:51:16;101569.67;;;5.86;100.00
78892;BME280;68368;51.728;5.248;2023-12-20T07:53:24;101570.93;;;5.88;100.00
78892;BME280;68368;51.728;5.248;2023-12-20T07:55:29;101568.34;;;5.90;100.00
78892;BME280;68368;51.728;5.248;2023-12-20T07:57:37;101568.77;;;5.93;100.00
78892;BME280;68368;51.728;5.248;2023-12-20T07:59:44;101567.94;;;5.95;100.00
78892;BME280;68368;51.728;5.248;2023-12-20T08:01:50;101573.77;;;5.97;100.00
78892;BME280;68368;51.728;5.248;2023-12-20T08:03:56;101574.35;;;5.98;100.00
78892;BME280;68368;51.728;5.248;2023-12-20T08:06:02;101572.81;;;6.00;100.00
78892;BME280;68368;51.728;5.248;2023-12-20T08:08:10;101572.13;;;6.02;100.00
78892;BME280;68368;51.728;5.248;2023-12-20T08:10:16;101570.77;;;6.04;100.00
78892;BME280;68368;51.728;5.248;2023-12-20T08:12:21;101573.78;;;6.05;100.00
78892;BME280;68368;51.728;5.248;2023-12-20T08:14:29;101569.57;;;6.06;100.00
78892;BME280;68368;51.728;5.248;2023-12-20T08:16:37;101574.55;;;6.07;100.00
78892;BME280;68368;51.728;5.248;2023-12-20T08:18:45;101579.48;;;6.08;100.00
78892;BME280;68368;51.728;5.248;2023-12-20T08:20:52;101586.74;;;6.10;100.00
78892;BME280;68368;51.728;5.248;2023-12-20T08:22:58;101583.10;;;6.13;100.00
78892;BME280;68368;51.728;5.248;2023-12-20T08:25:03;101587.05;;;6.17;100.00
78892;BME280;68368;51.728;5.248;2023-12-20T08:27:22;101584.14;;;6.20;100.00
78892;BME280;68368;51.728;5.248;2023-12-20T08:29:31;101584.73;;;6.24;100.00
78892;BME280;68368;51.728;5.248;2023-12-20T08:31:37;101588.80;;;6.25;100.00
78892;BME280;68368;51.728;5.248;2023-12-20T08:33:46;101583.69;;;6.25;100.00
78892;BME280;68368;51.728;5.248;2023-12-20T08:35:51;101582.81;;;6.25;100.00
78892;BME280;68368;51.728;5.248;2023-12-20T08:37:58;101590.04;;;6.25;100.00
78892;BME280;68368;51.728;5.248;2023-12-20T08:40:07;101589.52;;;6.25;100.00
78892;BME280;68368;51.728;5.248;2023-12-20T08:42:12;101586.50;;;6.24;100.00
78892;BME280;68368;51.728;5.248;2023-12-20T08:44:21;101580.49;;;6.23;100.00
78892;BME280;68368;51.728;5.248;2023-12-20T08:46:39;101581.34;;;6.22;100.00
78892;BME280;68368;51.728;5.248;2023-12-20T08:48:44;101574.98;;;6.20;100.00
78892;BME280;68368;51.728;5.248;2023-12-20T08:50:50;101573.36;;;6.19;100.00
78892;BME280;68368;51.728;5.248;2023-12-20T08:52:55;101571.57;;;6.18;100.00
78892;BME280;68368;51.728;5.248;2023-12-20T08:55:09;101568.55;;;6.17;100.00
78892;BME280;68368;51.728;5.248;2023-12-20T08:57:17;101566.77;;;6.16;100.00
78892;BME280;68368;51.728;5.248;2023-12-20T08:59:21;101562.38;;;6.17;100.00
78892;BME280;68368;51.728;5.248;2023-12-20T09:01:28;101564.88;;;6.19;100.00
78892;BME280;68368;51.728;5.248;2023-12-20T09:03:33;101573.39;;;6.21;100.00
78892;BME280;68368;51.728;5.248;2023-12-20T09:05:40;101572.36;;;6.22;100.00
78892;BME280;68368;51.728;5.248;2023-12-20T09:07:44;101572.02;;;6.23;100.00
78892;BME280;68368;51.728;5.248;2023-12-20T09:09:49;101568.69;;;6.23;100.00
78892;BME280;68368;51.728;5.248;2023-12-20T09:11:59;101572.23;;;6.24;100.00
78892;BME280;68368;51.728;5.248;2023-12-20T09:14:05;101568.34;;;6.25;100.00
78892;BME280;68368;51.728;5.248;2023-12-20T09:16:11;101571.70;;;6.25;100.00
78892;BME280;68368;51.728;5.248;2023-12-20T09:18:21;101577.90;;;6.26;100.00
78892;BME280;68368;51.728;5.248;2023-12-20T09:20:30;101576.66;;;6.25;100.00
78892;BME280;68368;51.728;5.248;2023-12-20T09:22:38;101574.38;;;6.26;100.00
78892;BME280;68368;51.728;5.248;2023-12-20T09:24:50;101573.36;;;6.28;100.00
78892;BME280;68368;51.728;5.248;2023-12-20T09:26:56;101567.57;;;6.30;100.00
78892;BME280;68368;51.728;5.248;2023-12-20T09:29:02;101572.20;;;6.32;100.00
78892;BME280;68368;51.728;5.248;2023-12-20T09:31:10;101564.50;;;6.35;100.00
78892;BME280;68368;51.728;5.248;2023-12-20T09:33:17;101555.00;;;6.37;100.00
78892;BME280;68368;51.728;5.248;2023-12-20T09:35:25;101551.67;;;6.38;100.00
78892;BME280;68368;51.728;5.248;2023-12-20T09:37:32;101555.58;;;6.39;100.00
78892;BME280;68368;51.728;5.248;2023-12-20T09:39:38;101557.55;;;6.41;100.00
78892;BME280;68368;51.728;5.248;2023-12-20T09:41:48;101560.59;;;6.43;100.00
78892;BME280;68368;51.728;5.248;2023-12-20T09:43:59;101557.97;;;6.44;100.00
78892;BME280;68368;51.728;5.248;2023-12-20T09:46:10;101561.70;;;6.46;100.00
78892;BME280;68368;51.728;5.248;2023-12-20T09:48:19;101556.09;;;6.48;100.00
78892;BME280;68368;51.728;5.248;2023-12-20T09:50:34;101556.14;;;6.51;100.00
78892;BME280;68368;51.728;5.248;2023-12-20T09:52:45;101553.05;;;6.55;100.00
78892;BME280;68368;51.728;5.248;2023-12-20T09:54:54;101552.73;;;6.58;100.00
78892;BME280;68368;51.728;5.248;2023-12-20T09:57:01;101555.27;;;6.61;100.00
78892;BME280;68368;51.728;5.248;2023-12-20T09:59:06;101555.34;;;6.65;100.00
78892;BME280;68368;51.728;5.248;2023-12-20T10:01:20;101554.72;;;6.70;100.00
78892;BME280;68368;51.728;5.248;2023-12-20T10:03:29;101559.18;;;6.73;100.00
78892;BME280;68368;51.728;5.248;2023-12-20T10:05:36;101558.20;;;6.77;100.00
78892;BME280;68368;51.728;5.248;2023-12-20T10:07:42;101558.08;;;6.81;100.00
78892;BME280;68368;51.728;5.248;2023-12-20T10:09:47;101547.88;;;6.83;100.00
78892;BME280;68368;51.728;5.248;2023-12-20T10:11:57;101547.23;;;6.86;100.00
78892;BME280;68368;51.728;5.248;2023-12-20T10:14:04;101545.14;;;6.88;100.00
78892;BME280;68368;51.728;5.248;2023-12-20T10:16:10;101549.06;;;6.90;100.00
78892;BME280;68368;51.728;5.248;2023-12-20T10:18:16;101555.77;;;6.90;100.00
78892;BME280;68368;51.728;5.248;2023-12-20T10:20:22;101561.07;;;6.91;100.00
78892;BME280;68368;51.728;5.248;2023-12-20T10:22:29;101561.06;;;6.91;100.00
78892;BME280;68368;51.728;5.248;2023-12-20T10:24:47;101565.83;;;6.90;100.00
78892;BME280;68368;51.728;5.248;2023-12-20T10:27:03;101569.71;;;6.91;100.00
78892;BME280;68368;51.728;5.248;2023-12-20T10:29:08;101566.93;;;6.92;100.00
78892;BME280;68368;51.728;5.248;2023-12-20T10:31:33;101563.74;;;6.92;100.00
78892;BME280;68368;51.728;5.248;2023-12-20T10:33:45;101571.89;;;6.93;100.00
78892;BME280;68368;51.728;5.248;2023-12-20T10:35:50;101566.23;;;6.94;100.00
78892;BME280;68368;51.728;5.248;2023-12-20T10:38:01;101561.84;;;6.95;100.00
78892;BME280;68368;51.728;5.248;2023-12-20T10:40:10;101560.86;;;7.00;100.00
78892;BME280;68368;51.728;5.248;2023-12-20T10:42:22;101558.28;;;7.05;100.00
78892;BME280;68368;51.728;5.248;2023-12-20T10:44:29;101549.55;;;7.11;100.00
78892;BME280;68368;51.728;5.248;2023-12-20T10:46:36;101546.52;;;7.20;100.00
78892;BME280;68368;51.728;5.248;2023-12-20T10:48:44;101536.52;;;7.24;99.97
78892;BME280;68368;51.728;5.248;2023-12-20T10:50:50;101531.77;;;7.25;99.88
78892;BME280;68368;51.728;5.248;2023-12-20T10:52:57;101526.30;;;7.25;99.84
78892;BME280;68368;51.728;5.248;2023-12-20T10:55:03;101523.86;;;7.29;99.96
78892;BME280;68368;51.728;5.248;2023-12-20T10:57:09;101519.49;;;7.32;99.85
78892;BME280;68368;51.728;5.248;2023-12-20T10:59:18;101522.69;;;7.33;99.94
78892;BME280;68368;51.728;5.248;2023-12-20T11:01:29;101522.02;;;7.35;99.86
78892;BME280;68368;51.728;5.248;2023-12-20T11:03:38;101525.22;;;7.36;99.79